sensor_id;sensor_type;location;lat;lon;timestamp;pressure;altitude;pressure_sealevel;temperature;humidity
48041;BME280;33815;48.386;11.738;2022-08-02T00:00:45;96724.34;;;17.34;100.00
48041;BME280;33815;48.386;11.738;2022-08-02T00:03:11;96726.63;;;17.37;100.00
48041;BME280;33815;48.386;11.738;2022-08-02T00:05:36;96735.66;;;17.27;100.00
48041;BME280;33815;48.386;11.738;2022-08-02T00:08:02;96750.66;;;17.27;100.00
48041;BME280;33815;48.386;11.738;2022-08-02T00:10:27;96743.16;;;17.30;100.00
48041;BME280;33815;48.386;11.738;2022-08-02T00:12:52;96736.16;;;17.16;100.00
48041;BME280;33815;48.386;11.738;2022-08-02T00:15:18;96734.97;;;17.19;100.00
48041;BME280;33815;48.386;11.738;2022-08-02T00:17:44;96746.25;;;17.12;100.00
48041;BME280;33815;48.386;11.738;2022-08-02T00:20:10;96735.13;;;16.95;100.00
48041;BME280;33815;48.386;11.738;2022-08-02T00:22:36;96729.53;;;16.84;100.00
48041;BME280;33815;48.386;11.738;2022-08-02T00:25:01;96741.47;;;17.01;100.00
48041;BME280;33815;48.386;11.738;2022-08-02T00:27:26;96747.03;;;16.91;100.00
48041;BME280;33815;48.386;11.738;2022-08-02T00:29:52;96762.09;;;16.98;100.00
48041;BME280;33815;48.386;11.738;2022-08-02T00:32:17;96760.66;;;16.95;100.00
48041;BME280;33815;48.386;11.738;2022-08-02T00:34:42;96744.31;;;16.85;100.00
48041;BME280;33815;48.386;11.738;2022-08-02T00:37:07;96760.47;;;16.82;100.00
48041;BME280;33815;48.386;11.738;2022-08-02T00:39:33;96746.31;;;16.83;100.00
48041;BME280;33815;48.386;11.738;2022-08-02T00:41:58;96780.34;;;16.84;100.00
48041;BME280;33815;48.386;11.738;2022-08-02T00:44:23;96783.91;;;16.76;100.00
48041;BME280;33815;48.386;11.738;2022-08-02T00:46:49;96783.06;;;16.76;100.00
48041;BME280;33815;48.386;11.738;2022-08-02T00:49:14;96789.91;;;16.70;100.00
48041;BME280;33815;48.386;11.738;2022-08-02T00:51:40;96780.19;;;16.71;100.00
48041;BME280;33815;48.386;11.738;2022-08-02T00:54:06;96789.56;;;16.58;100.00
48041;BME280;33815;48.386;11.738;2022-08-02T00:56:31;96782.38;;;16.52;100.00
48041;BME280;33815;48.386;11.738;2022-08-02T00:58:57;96769.59;;;16.49;100.00
48041;BME280;33815;48.386;11.738;2022-08-02T01:01:22;96774.25;;;16.47;100.00
48041;BME280;33815;48.386;11.738;2022-08-02T01:04:08;96770.25;;;16.51;100.00
48041;BME280;33815;48.386;11.738;2022-08-02T01:06:35;96772.59;;;16.46;100.00
48041;BME280;33815;48.386;11.738;2022-08-02T01:09:02;96768.00;;;16.48;100.00
48041;BME280;33815;48.386;11.738;2022-08-02T01:11:28;96777.06;;;16.46;100.00
48041;BME280;33815;48.386;11.738;2022-08-02T01:13:59;96772.50;;;16.39;100.00
48041;BME280;33815;48.386;11.738;2022-08-02T01:16:30;96755.00;;;16.32;100.00
48041;BME280;33815;48.386;11.738;2022-08-02T01:19:01;96764.19;;;16.36;100.00
48041;BME280;33815;48.386;11.738;2022-08-02T01:21:40;96759.09;;;16.34;100.00
48041;BME280;33815;48.386;11.738;2022-08-02T01:24:34;96751.84;;;16.36;100.00
48041;BME280;33815;48.386;11.738;2022-08-02T01:29:36;96758.81;;;16.29;100.00
48041;BME280;33815;48.386;11.738;2022-08-02T01:32:14;96768.88;;;16.25;100.00
48041;BME280;33815;48.386;11.738;2022-08-02T01:35:15;96773.88;;;16.20;100.00
48041;BME280;33815;48.386;11.738;2022-08-02T01:37:50;96772.34;;;16.26;100.00
48041;BME280;33815;48.386;11.738;2022-08-02T01:40:21;96765.63;;;16.38;100.00
48041;BME280;33815;48.386;11.738;2022-08-02T01:42:52;96755.66;;;16.19;100.00
48041;BME280;33815;48.386;11.738;2022-08-02T01:45:20;96760.72;;;16.35;100.00
48041;BME280;33815;48.386;11.738;2022-08-02T01:47:47;96759.00;;;16.27;100.00
48041;BME280;33815;48.386;11.738;2022-08-02T01:50:16;96758.72;;;16.22;100.00
48041;BME280;33815;48.386;11.738;2022-08-02T01:52:47;96759.44;;;16.31;100.00
48041;BME280;33815;48.386;11.738;2022-08-02T01:55:19;96755.25;;;16.37;100.00
48041;BME280;33815;48.386;11.738;2022-08-02T01:57:48;96747.78;;;16.19;100.00
48041;BME280;33815;48.386;11.738;2022-08-02T02:00:15;96740.31;;;16.22;100.00
48041;BME280;33815;48.386;11.738;2022-08-02T02:02:42;96750.47;;;16.25;100.00
48041;BME280;33815;48.386;11.738;2022-08-02T02:05:17;96742.59;;;16.10;100.00
48041;BME280;33815;48.386;11.738;2022-08-02T02:07:44;96738.50;;;16.08;100.00
48041;BME280;33815;48.386;11.738;2022-08-02T02:10:13;96736.34;;;15.97;100.00
48041;BME280;33815;48.386;11.738;2022-08-02T02:12:40;96749.66;;;15.95;100.00
48041;BME280;33815;48.386;11.738;2022-08-02T02:15:09;96744.31;;;15.88;100.00
48041;BME280;33815;48.386;11.738;2022-08-02T02:17:35;96750.00;;;15.92;100.00
48041;BME280;33815;48.386;11.738;2022-08-02T02:20:01;96746.75;;;15.90;100.00
48041;BME280;33815;48.386;11.738;2022-08-02T02:22:27;96750.34;;;15.89;100.00
48041;BME280;33815;48.386;11.738;2022-08-02T02:24:52;96732.56;;;15.76;100.00
48041;BME280;33815;48.386;11.738;2022-08-02T02:27:19;96745.50;;;15.77;100.00
48041;BME280;33815;48.386;11.738;2022-08-02T02:29:47;96741.16;;;15.70;100.00
48041;BME280;33815;48.386;11.738;2022-08-02T02:32:15;96737.25;;;15.66;100.00
48041;BME280;33815;48.386;11.738;2022-08-02T02:34:44;96756.09;;;15.92;100.00
48041;BME280;33815;48.386;11.738;2022-08-02T02:37:18;96755.63;;;15.89;100.00
48041;BME280;33815;48.386;11.738;2022-08-02T02:39:44;96757.81;;;15.85;100.00
48041;BME280;33815;48.386;11.738;2022-08-02T02:42:13;96759.16;;;15.81;100.00
48041;BME280;33815;48.386;11.738;2022-08-02T02:44:39;96745.25;;;15.72;100.00
48041;BME280;33815;48.386;11.738;2022-08-02T02:47:05;96760.00;;;15.73;100.00
48041;BME280;33815;48.386;11.738;2022-08-02T02:49:33;96748.81;;;15.56;100.00
48041;BME280;33815;48.386;11.738;2022-08-02T02:52:00;96745.56;;;15.54;100.00
48041;BME280;33815;48.386;11.738;2022-08-02T02:54:27;96747.19;;;15.55;100.00
48041;BME280;33815;48.386;11.738;2022-08-02T02:56:53;96755.44;;;15.52;100.00
48041;BME280;33815;48.386;11.738;2022-08-02T02:59:20;96760.00;;;15.58;100.00
48041;BME280;33815;48.386;11.738;2022-08-02T03:01:45;96765.50;;;15.64;100.00
48041;BME280;33815;48.386;11.738;2022-08-02T03:04:11;96760.00;;;15.58;100.00
48041;BME280;33815;48.386;11.738;2022-08-02T03:06:38;96763.25;;;15.61;100.00
48041;BME280;33815;48.386;11.738;2022-08-02T03:09:04;96775.38;;;15.62;100.00
48041;BME280;33815;48.386;11.738;2022-08-02T03:11:30;96770.94;;;15.62;100.00
48041;BME280;33815;48.386;11.738;2022-08-02T03:13:57;96769.78;;;15.65;100.00
48041;BME280;33815;48.386;11.738;2022-08-02T03:16:24;96766.44;;;15.71;100.00
48041;BME280;33815;48.386;11.738;2022-08-02T03:18:50;96766.59;;;15.69;100.00
48041;BME280;33815;48.386;11.738;2022-08-02T03:21:15;96759.88;;;15.67;100.00
48041;BME280;33815;48.386;11.738;2022-08-02T03:23:41;96777.22;;;15.76;100.00
48041;BME280;33815;48.386;11.738;2022-08-02T03:26:08;96779.84;;;15.76;100.00
48041;BME280;33815;48.386;11.738;2022-08-02T03:28:33;96767.06;;;15.73;100.00
48041;BME280;33815;48.386;11.738;2022-08-02T03:30:59;96774.28;;;15.79;100.00
48041;BME280;33815;48.386;11.738;2022-08-02T03:33:25;96767.94;;;15.88;100.00
48041;BME280;33815;48.386;11.738;2022-08-02T03:35:52;96782.19;;;15.94;100.00
48041;BME280;33815;48.386;11.738;2022-08-02T03:38:22;96783.53;;;15.90;100.00
48041;BME280;33815;48.386;11.738;2022-08-02T03:40:48;96790.63;;;15.89;100.00
48041;BME280;33815;48.386;11.738;2022-08-02T03:43:14;96775.84;;;15.88;100.00
48041;BME280;33815;48.386;11.738;2022-08-02T03:45:46;96772.47;;;15.80;100.00
48041;BME280;33815;48.386;11.738;2022-08-02T03:48:13;96792.22;;;15.90;100.00
48041;BME280;33815;48.386;11.738;2022-08-02T03:50:40;96780.47;;;16.01;100.00
48041;BME280;33815;48.386;11.738;2022-08-02T03:53:06;96780.66;;;16.00;100.00
48041;BME280;33815;48.386;11.738;2022-08-02T03:55:33;96784.94;;;16.01;100.00
48041;BME280;33815;48.386;11.738;2022-08-02T03:57:59;96786.19;;;16.05;100.00
48041;BME280;33815;48.386;11.738;2022-08-02T04:00:24;96784.09;;;16.00;100.00
48041;BME280;33815;48.386;11.738;2022-08-02T04:02:50;96787.47;;;16.09;100.00
48041;BME280;33815;48.386;11.738;2022-08-02T04:05:16;96779.19;;;15.97;100.00
48041;BME280;33815;48.386;11.738;2022-08-02T04:07:41;96782.00;;;15.96;100.00
48041;BME280;33815;48.386;11.738;2022-08-02T04:10:08;96778.28;;;15.90;100.00
48041;BME280;33815;48.386;11.738;2022-08-02T04:12:34;96795.50;;;15.92;100.00
48041;BME280;33815;48.386;11.738;2022-08-02T04:15:01;96790.44;;;15.91;100.00
48041;BME280;33815;48.386;11.738;2022-08-02T04:17:29;96796.31;;;15.93;100.00
48041;BME280;33815;48.386;11.738;2022-08-02T04:20:01;96779.94;;;15.91;100.00
48041;BME280;33815;48.386;11.738;2022-08-02T04:22:38;96798.69;;;16.03;100.00
48041;BME280;33815;48.386;11.738;2022-08-02T04:25:06;96788.97;;;15.88;100.00
48041;BME280;33815;48.386;11.738;2022-08-02T04:27:33;96804.69;;;15.97;100.00
48041;BME280;33815;48.386;11.738;2022-08-02T04:30:00;96803.94;;;16.03;100.00
48041;BME280;33815;48.386;11.738;2022-08-02T04:32:26;96804.50;;;15.98;100.00
48041;BME280;33815;48.386;11.738;2022-08-02T04:34:52;96818.47;;;16.14;100.00
48041;BME280;33815;48.386;11.738;2022-08-02T04:37:17;96815.13;;;16.20;100.00
48041;BME280;33815;48.386;11.738;2022-08-02T04:39:43;96803.91;;;16.26;100.00
48041;BME280;33815;48.386;11.738;2022-08-02T04:42:08;96821.56;;;16.32;100.00
48041;BME280;33815;48.386;11.738;2022-08-02T04:44:34;96821.28;;;16.27;100.00
48041;BME280;33815;48.386;11.738;2022-08-02T04:47:00;96823.28;;;16.25;100.00
48041;BME280;33815;48.386;11.738;2022-08-02T04:49:30;96841.09;;;16.38;100.00
48041;BME280;33815;48.386;11.738;2022-08-02T04:51:56;96830.00;;;16.42;100.00
48041;BME280;33815;48.386;11.738;2022-08-02T04:54:21;96839.63;;;16.50;100.00
48041;BME280;33815;48.386;11.738;2022-08-02T04:56:46;96830.38;;;16.54;100.00
48041;BME280;33815;48.386;11.738;2022-08-02T04:59:12;96832.47;;;16.59;100.00
48041;BME280;33815;48.386;11.738;2022-08-02T05:01:37;96835.94;;;16.59;100.00
48041;BME280;33815;48.386;11.738;2022-08-02T05:04:04;96830.19;;;16.56;100.00
48041;BME280;33815;48.386;11.738;2022-08-02T05:06:29;96836.47;;;16.70;100.00
48041;BME280;33815;48.386;11.738;2022-08-02T05:08:55;96824.56;;;16.74;100.00
48041;BME280;33815;48.386;11.738;2022-08-02T05:11:24;96823.03;;;16.94;100.00
48041;BME280;33815;48.386;11.738;2022-08-02T05:13:49;96817.84;;;17.01;100.00
48041;BME280;33815;48.386;11.738;2022-08-02T05:16:15;96818.25;;;17.20;100.00
48041;BME280;33815;48.386;11.738;2022-08-02T05:18:40;96808.53;;;17.20;100.00
48041;BME280;33815;48.386;11.738;2022-08-02T05:21:05;96809.59;;;17.26;100.00
48041;BME280;33815;48.386;11.738;2022-08-02T05:23:31;96808.34;;;17.22;100.00
48041;BME280;33815;48.386;11.738;2022-08-02T05:25:56;96825.88;;;17.29;100.00
48041;BME280;33815;48.386;11.738;2022-08-02T05:28:21;96825.53;;;17.39;100.00
48041;BME280;33815;48.386;11.738;2022-08-02T05:30:47;96820.59;;;17.29;100.00
48041;BME280;33815;48.386;11.738;2022-08-02T05:33:12;96830.44;;;17.42;100.00
48041;BME280;33815;48.386;11.738;2022-08-02T05:35:37;96830.00;;;17.39;100.00
48041;BME280;33815;48.386;11.738;2022-08-02T05:38:02;96817.81;;;17.38;100.00
48041;BME280;33815;48.386;11.738;2022-08-02T05:40:28;96830.97;;;17.38;100.00
48041;BME280;33815;48.386;11.738;2022-08-02T05:42:54;96817.16;;;17.51;100.00
48041;BME280;33815;48.386;11.738;2022-08-02T05:45:19;96826.97;;;17.42;100.00
48041;BME280;33815;48.386;11.738;2022-08-02T05:47:44;96825.72;;;17.38;100.00
48041;BME280;33815;48.386;11.738;2022-08-02T05:50:10;96821.81;;;17.34;100.00
48041;BME280;33815;48.386;11.738;2022-08-02T05:52:44;96812.50;;;17.31;100.00
48041;BME280;33815;48.386;11.738;2022-08-02T05:55:23;96821.81;;;17.34;100.00
48041;BME280;33815;48.386;11.738;2022-08-02T05:57:56;96821.97;;;17.47;100.00
48041;BME280;33815;48.386;11.738;2022-08-02T06:00:26;96833.00;;;17.57;100.00
48041;BME280;33815;48.386;11.738;2022-08-02T06:03:13;96825.81;;;17.66;100.00
48041;BME280;33815;48.386;11.738;2022-08-02T06:05:48;96823.72;;;17.61;100.00
48041;BME280;33815;48.386;11.738;2022-08-02T06:08:14;96823.34;;;17.64;100.00
48041;BME280;33815;48.386;11.738;2022-08-02T06:10:40;96812.84;;;17.71;100.00
48041;BME280;33815;48.386;11.738;2022-08-02T06:13:11;96830.75;;;17.76;100.00
48041;BME280;33815;48.386;11.738;2022-08-02T06:15:37;96829.06;;;17.68;100.00
48041;BME280;33815;48.386;11.738;2022-08-02T06:18:04;96828.53;;;17.79;100.00
48041;BME280;33815;48.386;11.738;2022-08-02T06:20:30;96829.22;;;17.88;100.00
48041;BME280;33815;48.386;11.738;2022-08-02T06:23:06;96829.78;;;18.05;100.00
48041;BME280;33815;48.386;11.738;2022-08-02T06:25:34;96834.38;;;18.25;100.00
48041;BME280;33815;48.386;11.738;2022-08-02T06:28:01;96817.38;;;18.27;100.00
48041;BME280;33815;48.386;11.738;2022-08-02T06:30:27;96828.06;;;18.47;100.00
48041;BME280;33815;48.386;11.738;2022-08-02T06:32:53;96827.72;;;18.57;100.00
48041;BME280;33815;48.386;11.738;2022-08-02T06:35:18;96822.09;;;18.74;100.00
48041;BME280;33815;48.386;11.738;2022-08-02T06:37:58;96802.69;;;18.88;97.09
48041;BME280;33815;48.386;11.738;2022-08-02T06:43:25;96821.09;;;19.30;95.26
48041;BME280;33815;48.386;11.738;2022-08-02T06:45:54;96810.81;;;19.68;92.75
48041;BME280;33815;48.386;11.738;2022-08-02T06:48:19;96808.81;;;19.84;90.13
48041;BME280;33815;48.386;11.738;2022-08-02T06:50:44;96822.81;;;20.18;89.37
48041;BME280;33815;48.386;11.738;2022-08-02T06:53:10;96817.53;;;20.25;90.00
48041;BME280;33815;48.386;11.738;2022-08-02T06:55:36;96810.81;;;20.22;86.21
48041;BME280;33815;48.386;11.738;2022-08-02T06:58:01;96820.19;;;20.18;87.03
48041;BME280;33815;48.386;11.738;2022-08-02T07:00:28;96816.91;;;20.29;88.84
48041;BME280;33815;48.386;11.738;2022-08-02T07:02:53;96823.78;;;20.50;87.20
48041;BME280;33815;48.386;11.738;2022-08-02T07:05:19;96829.50;;;20.41;88.65
48041;BME280;33815;48.386;11.738;2022-08-02T07:07:44;96827.25;;;20.51;86.46
48041;BME280;33815;48.386;11.738;2022-08-02T07:10:10;96828.06;;;20.45;84.68
48041;BME280;33815;48.386;11.738;2022-08-02T07:12:36;96818.13;;;20.40;85.02
48041;BME280;33815;48.386;11.738;2022-08-02T07:15:04;96830.13;;;20.49;83.53
48041;BME280;33815;48.386;11.738;2022-08-02T07:17:30;96833.19;;;20.33;84.64
48041;BME280;33815;48.386;11.738;2022-08-02T07:19:56;96825.06;;;20.21;84.76
48041;BME280;33815;48.386;11.738;2022-08-02T07:22:22;96831.16;;;20.28;86.94
48041;BME280;33815;48.386;11.738;2022-08-02T07:24:49;96824.03;;;20.15;85.79
48041;BME280;33815;48.386;11.738;2022-08-02T07:27:14;96813.66;;;20.07;85.96
48041;BME280;33815;48.386;11.738;2022-08-02T07:29:40;96826.91;;;20.07;87.27
48041;BME280;33815;48.386;11.738;2022-08-02T07:32:06;96826.31;;;20.05;88.74
48041;BME280;33815;48.386;11.738;2022-08-02T07:34:31;96833.19;;;20.19;87.29
48041;BME280;33815;48.386;11.738;2022-08-02T07:36:57;96815.31;;;20.15;88.16
48041;BME280;33815;48.386;11.738;2022-08-02T07:39:22;96815.69;;;20.25;87.16
48041;BME280;33815;48.386;11.738;2022-08-02T07:41:48;96826.06;;;20.47;87.19
48041;BME280;33815;48.386;11.738;2022-08-02T07:44:17;96819.13;;;20.52;87.73
48041;BME280;33815;48.386;11.738;2022-08-02T07:46:42;96818.69;;;20.56;86.57
48041;BME280;33815;48.386;11.738;2022-08-02T07:49:09;96825.59;;;20.70;83.57
48041;BME280;33815;48.386;11.738;2022-08-02T07:51:34;96822.19;;;20.49;85.42
48041;BME280;33815;48.386;11.738;2022-08-02T07:54:00;96822.34;;;20.48;85.08
48041;BME280;33815;48.386;11.738;2022-08-02T07:56:26;96814.13;;;20.90;87.49
48041;BME280;33815;48.386;11.738;2022-08-02T07:58:51;96808.91;;;21.15;84.86
48041;BME280;33815;48.386;11.738;2022-08-02T08:01:16;96815.34;;;21.32;81.15
48041;BME280;33815;48.386;11.738;2022-08-02T08:03:42;96798.25;;;21.28;82.61
48041;BME280;33815;48.386;11.738;2022-08-02T08:06:07;96788.66;;;21.27;81.00
48041;BME280;33815;48.386;11.738;2022-08-02T08:08:33;96802.41;;;21.49;82.02
48041;BME280;33815;48.386;11.738;2022-08-02T08:10:59;96807.50;;;21.83;81.04
48041;BME280;33815;48.386;11.738;2022-08-02T08:13:24;96789.28;;;21.86;79.09
48041;BME280;33815;48.386;11.738;2022-08-02T08:15:49;96796.88;;;22.08;79.63
48041;BME280;33815;48.386;11.738;2022-08-02T08:18:14;96806.84;;;22.31;76.74
48041;BME280;33815;48.386;11.738;2022-08-02T08:20:40;96795.53;;;22.61;76.63
48041;BME280;33815;48.386;11.738;2022-08-02T08:23:05;96798.91;;;22.50;74.21
48041;BME280;33815;48.386;11.738;2022-08-02T08:25:30;96798.63;;;22.76;74.12
48041;BME280;33815;48.386;11.738;2022-08-02T08:27:56;96797.47;;;22.72;72.35
48041;BME280;33815;48.386;11.738;2022-08-02T08:30:21;96795.47;;;22.68;72.20
48041;BME280;33815;48.386;11.738;2022-08-02T08:32:47;96793.56;;;23.24;76.85
48041;BME280;33815;48.386;11.738;2022-08-02T08:35:13;96781.88;;;23.13;70.81
48041;BME280;33815;48.386;11.738;2022-08-02T08:37:39;96784.09;;;23.82;68.90
48041;BME280;33815;48.386;11.738;2022-08-02T08:40:06;96782.63;;;24.34;65.29
48041;BME280;33815;48.386;11.738;2022-08-02T08:42:32;96794.91;;;23.99;66.81
48041;BME280;33815;48.386;11.738;2022-08-02T08:44:59;96792.31;;;23.81;67.53
48041;BME280;33815;48.386;11.738;2022-08-02T08:50:13;96774.97;;;24.37;62.70
48041;BME280;33815;48.386;11.738;2022-08-02T08:52:42;96792.31;;;24.75;61.97
48041;BME280;33815;48.386;11.738;2022-08-02T08:55:12;96793.81;;;24.71;62.44
48041;BME280;33815;48.386;11.738;2022-08-02T08:57:42;96782.25;;;24.77;65.29
48041;BME280;33815;48.386;11.738;2022-08-02T09:00:09;96779.91;;;24.81;60.50
48041;BME280;33815;48.386;11.738;2022-08-02T09:02:37;96786.91;;;25.28;61.67
48041;BME280;33815;48.386;11.738;2022-08-02T09:05:04;96784.56;;;25.43;58.33
48041;BME280;33815;48.386;11.738;2022-08-02T09:07:29;96771.78;;;25.79;57.03
48041;BME280;33815;48.386;11.738;2022-08-02T09:09:54;96777.84;;;25.92;57.09
48041;BME280;33815;48.386;11.738;2022-08-02T09:12:20;96787.16;;;26.06;54.90
48041;BME280;33815;48.386;11.738;2022-08-02T09:14:49;96787.75;;;26.08;57.47
48041;BME280;33815;48.386;11.738;2022-08-02T09:17:14;96780.75;;;26.24;54.61
48041;BME280;33815;48.386;11.738;2022-08-02T09:19:40;96782.22;;;25.98;54.09
48041;BME280;33815;48.386;11.738;2022-08-02T09:22:10;96788.38;;;25.81;55.84
48041;BME280;33815;48.386;11.738;2022-08-02T09:24:48;96795.63;;;25.52;56.38
48041;BME280;33815;48.386;11.738;2022-08-02T09:27:16;96791.69;;;25.89;57.75
48041;BME280;33815;48.386;11.738;2022-08-02T09:29:53;96801.72;;;25.81;57.31
48041;BME280;33815;48.386;11.738;2022-08-02T09:32:18;96791.41;;;26.02;54.35
48041;BME280;33815;48.386;11.738;2022-08-02T09:34:49;96791.78;;;25.94;54.57
48041;BME280;33815;48.386;11.738;2022-08-02T09:37:28;96804.09;;;25.32;54.84
48041;BME280;33815;48.386;11.738;2022-08-02T09:39:54;96805.00;;;25.26;57.24
48041;BME280;33815;48.386;11.738;2022-08-02T09:42:21;96811.03;;;25.33;59.26
48041;BME280;33815;48.386;11.738;2022-08-02T09:45:00;96804.13;;;25.49;55.13
48041;BME280;33815;48.386;11.738;2022-08-02T09:47:27;96809.78;;;25.70;54.61
48041;BME280;33815;48.386;11.738;2022-08-02T09:49:54;96799.78;;;25.94;55.45
48041;BME280;33815;48.386;11.738;2022-08-02T09:52:27;96803.91;;;26.19;54.46
48041;BME280;33815;48.386;11.738;2022-08-02T09:54:53;96793.78;;;26.38;52.66
48041;BME280;33815;48.386;11.738;2022-08-02T09:57:26;96793.97;;;26.53;54.79
48041;BME280;33815;48.386;11.738;2022-08-02T09:59:55;96788.50;;;26.65;52.24
48041;BME280;33815;48.386;11.738;2022-08-02T10:02:21;96789.47;;;26.37;51.58
48041;BME280;33815;48.386;11.738;2022-08-02T10:04:47;96794.94;;;26.25;52.05
48041;BME280;33815;48.386;11.738;2022-08-02T10:07:13;96794.63;;;26.04;51.09
48041;BME280;33815;48.386;11.738;2022-08-02T10:09:38;96796.41;;;26.15;53.95
48041;BME280;33815;48.386;11.738;2022-08-02T10:12:05;96791.31;;;26.14;54.35
48041;BME280;33815;48.386;11.738;2022-08-02T10:14:32;96794.16;;;26.46;53.38
48041;BME280;33815;48.386;11.738;2022-08-02T10:16:57;96790.34;;;26.42;52.58
48041;BME280;33815;48.386;11.738;2022-08-02T10:19:23;96787.72;;;26.64;55.17
48041;BME280;33815;48.386;11.738;2022-08-02T10:21:57;96796.50;;;26.82;52.80
48041;BME280;33815;48.386;11.738;2022-08-02T10:24:30;96792.06;;;26.71;49.74
48041;BME280;33815;48.386;11.738;2022-08-02T10:26:57;96785.69;;;27.21;50.45
48041;BME280;33815;48.386;11.738;2022-08-02T10:29:29;96782.53;;;27.24;49.25
48041;BME280;33815;48.386;11.738;2022-08-02T10:31:58;96773.88;;;27.17;47.85
48041;BME280;33815;48.386;11.738;2022-08-02T10:34:47;96780.41;;;27.53;52.94
48041;BME280;33815;48.386;11.738;2022-08-02T10:37:15;96765.19;;;27.32;47.40
48041;BME280;33815;48.386;11.738;2022-08-02T10:39:43;96784.81;;;27.15;55.60
48041;BME280;33815;48.386;11.738;2022-08-02T10:42:10;96773.31;;;27.37;47.41
48041;BME280;33815;48.386;11.738;2022-08-02T10:44:37;96770.22;;;27.28;47.19
48041;BME280;33815;48.386;11.738;2022-08-02T10:47:20;96767.53;;;27.50;48.91
48041;BME280;33815;48.386;11.738;2022-08-02T10:49:55;96769.13;;;27.84;46.68
48041;BME280;33815;48.386;11.738;2022-08-02T10:52:23;96762.66;;;28.12;46.37
48041;BME280;33815;48.386;11.738;2022-08-02T10:55:10;96754.66;;;28.65;47.37
48041;BME280;33815;48.386;11.738;2022-08-02T10:57:35;96730.09;;;29.04;44.51
48041;BME280;33815;48.386;11.738;2022-08-02T11:00:04;96744.38;;;29.41;45.52
48041;BME280;33815;48.386;11.738;2022-08-02T11:02:44;96743.75;;;28.98;43.95
48041;BME280;33815;48.386;11.738;2022-08-02T11:05:26;96742.41;;;28.95;43.10
48041;BME280;33815;48.386;11.738;2022-08-02T11:07:51;96746.28;;;28.57;43.61
48041;BME280;33815;48.386;11.738;2022-08-02T11:10:37;96745.59;;;28.29;46.06
48041;BME280;33815;48.386;11.738;2022-08-02T11:16:03;96734.09;;;28.92;47.53
48041;BME280;33815;48.386;11.738;2022-08-02T11:21:30;96713.78;;;29.47;44.96
48041;BME280;33815;48.386;11.738;2022-08-02T11:24:23;96721.00;;;29.78;46.15
48041;BME280;33815;48.386;11.738;2022-08-02T11:26:50;96711.34;;;30.07;46.05
48041;BME280;33815;48.386;11.738;2022-08-02T11:29:15;96720.72;;;30.10;45.13
48041;BME280;33815;48.386;11.738;2022-08-02T11:31:42;96709.91;;;30.31;42.60
48041;BME280;33815;48.386;11.738;2022-08-02T11:34:08;96700.53;;;30.23;42.48
48041;BME280;33815;48.386;11.738;2022-08-02T11:36:54;96706.94;;;30.37;40.80
48041;BME280;33815;48.386;11.738;2022-08-02T11:39:21;96704.66;;;29.74;41.19
48041;BME280;33815;48.386;11.738;2022-08-02T11:41:48;96697.41;;;29.44;41.07
48041;BME280;33815;48.386;11.738;2022-08-02T11:44:14;96697.66;;;29.88;42.76
48041;BME280;33815;48.386;11.738;2022-08-02T11:46:40;96707.28;;;30.10;41.59
48041;BME280;33815;48.386;11.738;2022-08-02T11:49:16;96704.56;;;30.20;43.37
48041;BME280;33815;48.386;11.738;2022-08-02T11:51:58;96701.47;;;30.58;42.00
48041;BME280;33815;48.386;11.738;2022-08-02T11:54:30;96707.41;;;30.55;39.06
48041;BME280;33815;48.386;11.738;2022-08-02T11:59:41;96702.63;;;30.91;37.95
48041;BME280;33815;48.386;11.738;2022-08-02T12:02:08;96710.69;;;31.02;40.19
48041;BME280;33815;48.386;11.738;2022-08-02T12:04:34;96698.41;;;31.25;39.55
48041;BME280;33815;48.386;11.738;2022-08-02T12:07:01;96690.25;;;30.96;39.00
48041;BME280;33815;48.386;11.738;2022-08-02T12:09:29;96699.66;;;30.98;37.41
48041;BME280;33815;48.386;11.738;2022-08-02T12:11:55;96703.72;;;30.30;37.70
48041;BME280;33815;48.386;11.738;2022-08-02T12:14:22;96707.03;;;29.96;37.75
48041;BME280;33815;48.386;11.738;2022-08-02T12:16:48;96710.03;;;29.84;39.36
48041;BME280;33815;48.386;11.738;2022-08-02T12:19:32;96699.28;;;29.69;38.75
48041;BME280;33815;48.386;11.738;2022-08-02T12:22:17;96701.19;;;29.53;39.53
48041;BME280;33815;48.386;11.738;2022-08-02T12:24:54;96697.06;;;30.07;38.41
48041;BME280;33815;48.386;11.738;2022-08-02T12:30:11;96691.09;;;31.31;37.23
48041;BME280;33815;48.386;11.738;2022-08-02T12:32:37;96680.38;;;31.60;35.91
48041;BME280;33815;48.386;11.738;2022-08-02T12:35:13;96680.81;;;31.38;35.40
48041;BME280;33815;48.386;11.738;2022-08-02T12:37:41;96684.22;;;31.49;35.67
48041;BME280;33815;48.386;11.738;2022-08-02T12:40:28;96679.75;;;31.68;37.42
48041;BME280;33815;48.386;11.738;2022-08-02T12:42:56;96671.31;;;31.11;36.64
48041;BME280;33815;48.386;11.738;2022-08-02T12:45:23;96680.44;;;30.70;40.21
48041;BME280;33815;48.386;11.738;2022-08-02T12:47:51;96674.72;;;30.82;36.57
48041;BME280;33815;48.386;11.738;2022-08-02T12:50:35;96673.19;;;31.16;39.33
48041;BME280;33815;48.386;11.738;2022-08-02T12:53:13;96663.31;;;30.96;37.91
48041;BME280;33815;48.386;11.738;2022-08-02T12:55:53;96666.69;;;31.51;36.59
48041;BME280;33815;48.386;11.738;2022-08-02T12:58:18;96652.09;;;31.57;34.54
48041;BME280;33815;48.386;11.738;2022-08-02T13:00:54;96671.31;;;31.80;38.15
48041;BME280;33815;48.386;11.738;2022-08-02T13:03:20;96655.84;;;32.15;35.13
48041;BME280;33815;48.386;11.738;2022-08-02T13:05:46;96657.22;;;32.37;33.77
48041;BME280;33815;48.386;11.738;2022-08-02T13:08:12;96639.75;;;32.05;32.15
48041;BME280;33815;48.386;11.738;2022-08-02T13:10:37;96645.69;;;32.50;33.13